createdAt,value
2018-01-22T00:01:11.100Z,8.45
2018-01-22T00:03:38.663Z,9.35
2018-01-22T00:06:06.560Z,8.20
2018-01-22T00:08:34.158Z,8.43
2018-01-22T00:11:01.731Z,7.97
2018-01-22T00:13:30.242Z,8.02
2018-01-22T00:15:58.015Z,8.10
2018-01-22T00:18:25.588Z,8.35
2018-01-22T00:20:53.180Z,6.55
2018-01-22T00:23:21.542Z,6.55
2018-01-22T00:25:49.144Z,7.60
2018-01-22T00:28:16.767Z,7.57
2018-01-22T00:30:44.594Z,7.03
2018-01-22T00:33:12.181Z,7.45
2018-01-22T00:35:39.994Z,7.28
2018-01-22T00:38:07.580Z,7.43
2018-01-22T00:40:35.164Z,7.50
2018-01-22T00:43:02.946Z,7.80
2018-01-22T00:45:30.542Z,6.25
2018-01-22T00:47:58.130Z,7.12
2018-01-22T00:50:25.742Z,6.80
2018-01-22T00:52:54.066Z,7.20
2018-01-22T00:55:22.659Z,6.95
2018-01-22T00:57:50.570Z,7.20
2018-01-22T01:00:18.904Z,8.15
2018-01-22T01:02:46.880Z,7.15
2018-01-22T01:05:14.470Z,7.30
2018-01-22T01:07:42.389Z,7.62
2018-01-22T01:10:09.979Z,6.30
2018-01-22T01:12:38.731Z,6.55
2018-01-22T01:15:06.302Z,7.93
2018-01-22T01:17:34.068Z,6.70
2018-01-22T01:20:02.411Z,7.93
2018-01-22T01:22:30.751Z,8.40
2018-01-22T01:24:58.318Z,7.57
2018-01-22T01:27:25.942Z,6.62
2018-01-22T01:29:53.529Z,6.35
2018-01-22T01:32:21.091Z,8.38
2018-01-22T01:34:48.780Z,7.10
2018-01-22T01:37:16.689Z,6.82
2018-01-22T01:39:44.271Z,6.97
2018-01-22T01:42:11.888Z,8.15
2018-01-22T01:44:39.823Z,7.50
2018-01-22T01:47:07.408Z,7.60
2018-01-22T01:49:35.001Z,7.18
2018-01-22T01:52:02.606Z,7.53
2018-01-22T01:54:30.170Z,7.00
2018-01-22T01:56:59.602Z,7.82
2018-01-22T01:59:27.950Z,7.85
2018-01-22T02:01:55.530Z,8.50
2018-01-22T02:04:23.923Z,8.77
2018-01-22T02:06:51.487Z,10.02
2018-01-22T02:09:19.554Z,10.40
2018-01-22T02:11:47.916Z,8.15
2018-01-22T02:14:15.498Z,8.18
2018-01-22T02:16:43.851Z,8.75
2018-01-22T02:19:11.707Z,8.55
2018-01-22T02:21:39.304Z,8.38
2018-01-22T02:24:07.695Z,8.23
2018-01-22T02:26:35.311Z,10.00
2018-01-22T02:29:02.886Z,9.35
2018-01-22T02:31:30.483Z,9.80
2018-01-22T02:33:59.057Z,9.18
2018-01-22T02:36:27.418Z,9.32
2018-01-22T02:38:55.015Z,8.38
2018-01-22T02:41:22.851Z,8.10
2018-01-22T02:43:51.203Z,9.45
2018-01-22T02:46:18.931Z,7.03
2018-01-22T02:48:46.549Z,8.15
2018-01-22T02:51:14.127Z,8.75
2018-01-22T02:53:42.480Z,9.77
2018-01-22T02:56:10.921Z,7.80
2018-01-22T02:58:38.685Z,9.70
2018-01-22T03:01:06.282Z,7.72
2018-01-22T03:03:36.479Z,8.48
2018-01-22T03:06:04.865Z,7.47
2018-01-22T03:08:32.630Z,9.05
2018-01-22T03:11:00.462Z,6.97
2018-01-22T03:13:28.058Z,7.82
2018-01-22T03:15:55.628Z,7.87
2018-01-22T03:18:23.233Z,8.02
2018-01-22T03:20:51.651Z,7.62
2018-01-22T03:23:19.219Z,9.00
2018-01-22T03:25:47.141Z,7.57
2018-01-22T03:28:16.486Z,7.85
2018-01-22T03:30:44.075Z,7.20
2018-01-22T03:33:11.696Z,8.20
2018-01-22T03:35:39.282Z,7.53
2018-01-22T03:38:06.868Z,6.68
2018-01-22T03:40:35.253Z,6.90
2018-01-22T03:43:02.834Z,7.30
2018-01-22T03:45:30.405Z,8.10
2018-01-22T03:47:58.356Z,6.90
2018-01-22T03:50:26.682Z,5.93
2018-01-22T03:52:54.261Z,7.40
2018-01-22T03:55:21.861Z,7.00
2018-01-22T03:57:50.214Z,7.10
2018-01-22T04:00:17.929Z,5.43
2018-01-22T04:02:45.539Z,5.78
2018-01-22T04:05:13.116Z,6.18
2018-01-22T04:07:41.452Z,6.68
2018-01-22T04:10:09.467Z,5.68
2018-01-22T04:12:37.915Z,5.78
2018-01-22T04:15:05.480Z,5.95
2018-01-22T04:17:33.089Z,6.75
2018-01-22T04:20:01.318Z,6.45
2018-01-22T04:22:29.368Z,6.37
2018-01-22T04:24:56.964Z,6.35
2018-01-22T04:27:24.535Z,6.87
2018-01-22T04:29:52.872Z,6.25
2018-01-22T04:32:21.432Z,6.57
2018-01-22T04:34:48.990Z,6.07
2018-01-22T04:37:18.155Z,5.90
2018-01-22T04:39:45.734Z,6.30
2018-01-22T04:42:13.298Z,6.55
2018-01-22T04:44:40.871Z,6.20
2018-01-22T04:47:08.479Z,6.20
2018-01-22T04:49:36.321Z,6.70
2018-01-22T04:52:03.879Z,6.32
2018-01-22T04:54:32.276Z,6.45
2018-01-22T04:56:59.847Z,6.55
2018-01-22T04:59:27.435Z,6.43
2018-01-22T05:01:55.891Z,6.00
2018-01-22T05:04:23.461Z,7.20
2018-01-22T05:06:51.032Z,6.75
2018-01-22T05:09:18.636Z,7.15
2018-01-22T05:11:46.206Z,5.78
2018-01-22T05:14:13.881Z,6.47
2018-01-22T05:16:41.771Z,6.70
2018-01-22T05:19:09.349Z,7.43
2018-01-22T05:21:36.907Z,7.00
2018-01-22T05:24:05.591Z,6.07
2018-01-22T05:26:35.514Z,7.15
2018-01-22T05:29:03.842Z,5.82
2018-01-22T05:31:31.449Z,6.37
2018-01-22T05:33:59.066Z,6.15
2018-01-22T05:36:26.646Z,7.40
2018-01-22T05:38:54.308Z,6.35
2018-01-22T05:41:21.891Z,6.50
2018-01-22T05:43:50.199Z,7.03
2018-01-22T05:46:18.046Z,7.30
2018-01-22T05:48:46.394Z,7.07
2018-01-22T05:51:14.390Z,6.65
2018-01-22T05:53:42.820Z,6.25
2018-01-22T05:56:10.427Z,7.12
2018-01-22T05:58:38.027Z,5.60
2018-01-22T06:01:05.648Z,7.43
2018-01-22T06:03:34.006Z,6.70
2018-01-22T06:06:01.619Z,7.03
2018-01-22T06:08:30.184Z,6.55
2018-01-22T06:10:58.543Z,6.28
2018-01-22T06:13:26.099Z,6.40
2018-01-22T06:15:53.830Z,6.37
2018-01-22T06:18:21.459Z,7.85
2018-01-22T06:20:49.808Z,6.60
2018-01-22T06:23:17.577Z,8.20
2018-01-22T06:25:45.401Z,6.82
2018-01-22T06:28:14.400Z,6.75
2018-01-22T06:30:41.984Z,6.25
2018-01-22T06:33:09.550Z,6.78
2018-01-22T06:35:37.138Z,7.30
2018-01-22T06:38:06.300Z,7.28
2018-01-22T06:40:34.040Z,8.35
2018-01-22T06:43:01.626Z,7.95
2018-01-22T06:45:29.258Z,6.95
2018-01-22T06:47:56.815Z,6.60
2018-01-22T06:50:24.483Z,7.00
2018-01-22T06:52:53.746Z,6.80
2018-01-22T06:55:21.774Z,5.55
2018-01-22T06:57:49.406Z,6.25
2018-01-22T07:00:17.118Z,6.53
2018-01-22T07:02:44.724Z,5.60
2018-01-22T07:05:12.486Z,5.93
2018-01-22T07:07:40.087Z,5.35
2018-01-22T07:10:07.718Z,5.62
2018-01-22T07:12:35.309Z,5.90
2018-01-22T07:15:03.088Z,5.78
2018-01-22T07:17:31.182Z,5.97
2018-01-22T07:19:59.574Z,6.12
2018-01-22T07:22:28.149Z,5.93
2018-01-22T07:24:55.762Z,6.20
2018-01-22T07:27:23.422Z,5.90
2018-01-22T07:29:51.039Z,6.05
2018-01-22T07:32:19.471Z,6.55
2018-01-22T07:34:47.792Z,6.82
2018-01-22T07:37:15.640Z,7.10
2018-01-22T07:39:43.238Z,6.60
2018-01-22T07:42:11.592Z,6.25
2018-01-22T07:44:40.093Z,5.85
2018-01-22T07:47:08.158Z,6.30
2018-01-22T07:49:36.941Z,6.37
2018-01-22T07:52:05.625Z,6.15
2018-01-22T07:54:33.366Z,6.87
2018-01-22T07:57:00.986Z,5.43
2018-01-22T07:59:28.765Z,7.45
2018-01-22T08:01:56.536Z,5.62
2018-01-22T08:04:24.121Z,6.65
2018-01-22T08:06:52.079Z,6.12
2018-01-22T08:09:19.746Z,6.20
2018-01-22T08:11:47.387Z,6.85
2018-01-22T08:14:15.096Z,6.10
2018-01-22T08:16:43.494Z,4.82
2018-01-22T08:19:11.950Z,5.82
2018-01-22T08:21:39.600Z,6.00
2018-01-22T08:24:07.177Z,6.25
2018-01-22T08:26:34.785Z,5.15
2018-01-22T08:29:02.474Z,6.05
2018-01-22T08:31:30.174Z,6.28
2018-01-22T08:33:57.759Z,6.53
2018-01-22T08:36:26.785Z,6.40
2018-01-22T08:38:54.564Z,5.37
2018-01-22T08:41:23.023Z,5.82
2018-01-22T08:43:51.945Z,5.03
2018-01-22T08:46:19.763Z,5.47
2018-01-22T08:48:47.488Z,4.93
2018-01-22T08:51:15.234Z,4.85
2018-01-22T08:53:42.858Z,4.70
2018-01-22T08:56:10.779Z,5.13
2018-01-22T08:58:38.390Z,5.15
2018-01-22T09:01:06.039Z,5.78
2018-01-22T09:03:33.753Z,4.80
2018-01-22T09:06:01.454Z,5.10
2018-01-22T09:08:29.787Z,4.20
2018-01-22T09:10:57.696Z,6.05
2018-01-22T09:13:25.989Z,4.20
2018-01-22T09:15:53.717Z,3.70
2018-01-22T09:18:21.363Z,4.05
2018-01-22T09:20:49.109Z,4.83
2018-01-22T09:23:16.769Z,3.72
2018-01-22T09:25:44.420Z,3.67
2018-01-22T09:28:12.813Z,4.60
2018-01-22T09:30:40.381Z,3.80
2018-01-22T09:33:08.173Z,4.82
2018-01-22T09:35:35.845Z,3.77
2018-01-22T09:38:04.622Z,4.22
2018-01-22T09:40:32.212Z,4.63
2018-01-22T09:43:00.698Z,3.03
2018-01-22T09:45:28.336Z,3.37
2018-01-22T09:47:56.146Z,3.28
2018-01-22T09:50:23.856Z,3.35
2018-01-22T09:52:51.545Z,3.78
2018-01-22T09:55:19.883Z,3.70
2018-01-22T09:57:47.711Z,3.20
2018-01-22T10:00:16.159Z,3.00
2018-01-22T10:02:43.905Z,3.63
2018-01-22T10:05:13.529Z,2.83
2018-01-22T10:07:41.623Z,2.97
2018-01-22T10:10:11.642Z,2.75
2018-01-22T10:12:40.680Z,3.07
2018-01-22T10:15:09.612Z,3.45
2018-01-22T10:17:38.533Z,3.20
2018-01-22T10:20:07.522Z,3.17
2018-01-22T10:22:36.483Z,3.10
2018-01-22T10:25:05.511Z,2.70
2018-01-22T10:27:34.500Z,2.90
2018-01-22T10:30:03.442Z,3.17
2018-01-22T10:32:32.374Z,3.10
2018-01-22T10:35:01.515Z,3.30
2018-01-22T10:37:30.535Z,3.17
2018-01-22T10:39:59.548Z,3.80
2018-01-22T10:42:28.573Z,3.27
2018-01-22T10:44:57.597Z,3.30
2018-01-22T10:47:26.922Z,3.53
2018-01-22T10:49:55.867Z,3.20
2018-01-22T10:52:24.795Z,2.50
2018-01-22T10:54:53.694Z,2.67
2018-01-22T10:57:22.751Z,2.60
2018-01-22T10:59:51.884Z,2.60
2018-01-22T11:02:21.678Z,3.70
2018-01-22T11:04:50.644Z,3.00
2018-01-22T11:07:19.566Z,3.40
2018-01-22T11:09:48.502Z,3.20
2018-01-22T11:12:17.558Z,3.20
2018-01-22T11:14:46.475Z,3.40
2018-01-22T11:17:15.387Z,3.00
2018-01-22T11:19:45.911Z,2.87
2018-01-22T11:22:14.994Z,2.57
2018-01-22T11:24:44.276Z,3.10
2018-01-22T11:27:13.220Z,3.73
2018-01-22T11:29:42.141Z,3.93
2018-01-22T11:32:11.135Z,3.37
2018-01-22T11:34:40.091Z,4.40
2018-01-22T11:37:09.001Z,3.40
2018-01-22T11:39:38.339Z,3.00
2018-01-22T11:42:08.002Z,2.90
2018-01-22T11:44:37.259Z,4.13
2018-01-22T11:47:06.565Z,3.73
2018-01-22T11:49:36.093Z,3.97
2018-01-22T11:52:05.122Z,3.93
2018-01-22T11:54:34.095Z,4.40
2018-01-22T11:57:03.077Z,3.50
2018-01-22T11:59:32.908Z,3.70
2018-01-22T12:02:02.805Z,3.57
2018-01-22T12:04:32.700Z,4.17
2018-01-22T12:07:02.444Z,3.30
2018-01-22T12:09:31.354Z,4.60
2018-01-22T12:12:00.460Z,4.07
2018-01-22T12:14:30.554Z,3.27
2018-01-22T12:16:59.606Z,3.30
2018-01-22T12:19:28.583Z,4.30
2018-01-22T12:21:58.245Z,3.60
2018-01-22T12:24:29.895Z,3.73
2018-01-22T12:26:59.275Z,3.80
2018-01-22T12:29:28.451Z,3.30
2018-01-22T12:31:59.114Z,3.00
2018-01-22T12:34:29.236Z,3.60
2018-01-22T12:36:58.538Z,3.40
2018-01-22T12:39:27.652Z,3.53
2018-01-22T12:41:57.734Z,3.10
2018-01-22T12:44:26.938Z,3.33
2018-01-22T12:52:04.850Z,4.13
2018-01-22T12:54:34.146Z,4.27
2018-01-22T12:59:37.918Z,3.77
2018-01-22T13:02:07.700Z,4.53
2018-01-22T13:07:12.552Z,3.90
2018-01-22T13:09:41.899Z,3.70
2018-01-22T13:12:10.912Z,6.10
2018-01-22T13:17:14.478Z,4.63
2018-01-22T13:19:44.073Z,4.10
2018-01-22T13:24:48.066Z,3.80
2018-01-22T13:27:17.048Z,3.93
2018-01-22T13:37:30.182Z,4.33
2018-01-22T13:40:05.616Z,4.40
2018-01-22T13:42:35.202Z,4.17
2018-01-22T13:47:44.441Z,4.63
2018-01-22T13:50:14.868Z,4.73
2018-01-22T13:52:43.809Z,4.90
2018-01-22T13:55:13.783Z,4.93
2018-01-22T13:57:42.958Z,4.67
2018-01-22T14:00:12.227Z,5.57
2018-01-22T14:02:41.762Z,4.47
2018-01-22T14:05:11.262Z,4.30
2018-01-22T14:07:40.195Z,4.10
2018-01-22T14:10:09.640Z,4.60
2018-01-22T14:12:39.853Z,4.00
2018-01-22T14:15:08.786Z,4.83
2018-01-22T14:17:37.890Z,4.17
2018-01-22T14:20:06.813Z,4.57
2018-01-22T14:22:35.876Z,4.73
2018-01-22T14:25:04.842Z,4.20
2018-01-22T14:27:34.113Z,3.63
2018-01-22T14:30:03.554Z,4.30
2018-01-22T14:32:33.078Z,4.10
2018-01-22T14:35:02.275Z,5.10
2018-01-22T14:37:32.381Z,4.13
2018-01-22T14:40:01.322Z,4.20
2018-01-22T14:42:30.316Z,4.10
2018-01-22T14:44:59.875Z,5.30
2018-01-22T14:47:28.886Z,5.30
2018-01-22T14:49:58.285Z,4.67
2018-01-22T14:52:27.350Z,4.07
2018-01-22T14:54:56.331Z,4.17
2018-01-22T14:57:26.491Z,4.87
2018-01-22T14:59:55.739Z,4.30
2018-01-22T15:02:24.965Z,4.13
2018-01-22T15:04:54.485Z,5.80
2018-01-22T15:07:23.766Z,4.77
2018-01-22T15:09:52.810Z,5.37
2018-01-22T15:12:22.169Z,4.97
2018-01-22T15:14:51.892Z,5.20
2018-01-22T15:17:21.382Z,4.30
2018-01-22T15:19:50.684Z,5.37
2018-01-22T15:22:20.028Z,6.13
2018-01-22T15:24:49.496Z,6.17
2018-01-22T15:27:18.766Z,4.63
2018-01-22T15:29:47.992Z,5.90
2018-01-22T15:32:17.339Z,4.93
2018-01-22T15:34:46.294Z,5.40
2018-01-22T15:37:15.286Z,5.07
2018-01-22T15:39:44.928Z,6.70
2018-01-22T15:42:14.167Z,5.03
2018-01-22T15:44:43.674Z,6.30
2018-01-22T15:47:12.949Z,6.50
2018-01-22T15:49:42.721Z,6.07
2018-01-22T15:52:11.945Z,6.43
2018-01-22T15:54:40.965Z,5.93
2018-01-22T15:57:10.447Z,6.50
2018-01-22T15:59:40.139Z,6.20
2018-01-22T16:02:09.832Z,6.07
2018-01-22T16:04:39.166Z,6.17
2018-01-22T16:07:09.017Z,6.20
2018-01-22T16:09:39.066Z,5.30
2018-01-22T16:12:08.113Z,7.50
2018-01-22T16:14:38.792Z,7.27
2018-01-22T16:17:07.739Z,7.33
2018-01-22T16:19:36.967Z,7.07
2018-01-22T16:22:06.092Z,7.17
2018-01-22T16:24:35.332Z,5.90
2018-01-22T16:27:04.362Z,6.53
2018-01-22T16:29:33.581Z,6.30
2018-01-22T16:32:02.643Z,7.10
2018-01-22T16:34:31.590Z,5.60
2018-01-22T16:37:01.239Z,7.03
2018-01-22T16:39:30.583Z,7.13
2018-01-22T16:42:00.223Z,7.63
2018-01-22T16:44:29.943Z,7.10
2018-01-22T16:47:05.234Z,7.77
2018-01-22T16:49:34.244Z,9.23
2018-01-22T16:52:03.409Z,9.13
2018-01-22T16:54:32.450Z,10.50
2018-01-22T16:57:01.386Z,7.97
2018-01-22T16:59:30.619Z,8.93
2018-01-22T17:02:00.133Z,9.63
2018-01-22T17:04:29.042Z,8.07
2018-01-22T17:06:59.153Z,8.37
2018-01-22T17:09:29.879Z,10.47
2018-01-22T17:11:59.972Z,10.70
2018-01-22T17:14:28.890Z,10.60
2018-01-22T17:16:57.994Z,10.37
2018-01-22T17:19:27.042Z,11.37
2018-01-22T17:21:55.971Z,11.23
2018-01-22T17:24:25.376Z,11.43
2018-01-22T17:26:54.890Z,8.23
2018-01-22T17:29:24.149Z,9.10
2018-01-22T17:31:54.224Z,8.50
2018-01-22T17:34:23.358Z,11.73
2018-01-22T17:36:53.393Z,10.30
2018-01-22T17:39:22.428Z,9.43
2018-01-22T17:41:51.582Z,8.03
2018-01-22T17:44:20.603Z,9.40
2018-01-22T17:46:54.417Z,9.03
2018-01-22T17:49:24.777Z,8.60
2018-01-22T17:51:55.081Z,7.70
2018-01-22T17:54:24.226Z,8.23
2018-01-22T17:56:53.213Z,9.73
2018-01-22T17:59:22.184Z,9.63
2018-01-22T18:01:52.820Z,8.90
2018-01-22T18:04:22.001Z,10.40
2018-01-22T18:06:51.179Z,10.47
2018-01-22T18:09:21.095Z,10.43
2018-01-22T18:11:51.549Z,8.63
2018-01-22T18:14:20.540Z,9.07
2018-01-22T18:16:49.858Z,7.87
2018-01-22T18:19:19.178Z,9.80
2018-01-22T18:21:48.818Z,9.83
2018-01-22T18:24:19.582Z,9.70
2018-01-22T18:26:48.621Z,10.43
2018-01-22T18:29:18.961Z,12.07
2018-01-22T18:31:49.014Z,14.17
2018-01-22T18:34:18.110Z,13.60
2018-01-22T18:36:47.162Z,10.63
2018-01-22T18:39:16.073Z,13.50
2018-01-22T18:41:45.061Z,11.30
2018-01-22T18:44:14.904Z,10.37
2018-01-22T18:46:44.905Z,11.63
2018-01-22T18:49:14.901Z,11.40
2018-01-22T18:51:44.053Z,12.00
2018-01-22T18:54:13.058Z,12.83
2018-01-22T18:56:42.002Z,13.57
2018-01-22T18:59:11.158Z,17.20
2018-01-22T19:01:40.297Z,16.20
2018-01-22T19:04:09.274Z,15.87
2018-01-22T19:06:38.246Z,15.93
2018-01-22T19:09:07.390Z,16.90
2018-01-22T19:11:36.834Z,18.17
2018-01-22T19:14:06.472Z,15.87
2018-01-22T19:16:35.456Z,13.90
2018-01-22T19:19:04.644Z,13.53
2018-01-22T19:21:34.674Z,13.80
2018-01-22T19:24:03.722Z,14.50
2018-01-22T19:26:32.849Z,13.50
2018-01-22T19:29:01.867Z,15.10
2018-01-22T19:31:31.003Z,14.10
2018-01-22T19:34:00.068Z,13.57
2018-01-22T19:36:29.169Z,12.47
2018-01-22T19:38:58.417Z,12.33
2018-01-22T19:41:27.634Z,14.67
2018-01-22T19:43:56.824Z,12.90
2018-01-22T19:46:25.857Z,14.00
2018-01-22T19:48:54.964Z,13.10
2018-01-22T19:51:23.999Z,12.40
2018-01-22T19:53:54.512Z,16.23
2018-01-22T19:56:23.949Z,15.23
2018-01-22T19:58:53.245Z,13.30
2018-01-22T20:01:22.295Z,15.03
2018-01-22T20:03:51.426Z,14.17
2018-01-22T20:06:20.455Z,16.70
2018-01-22T20:08:49.399Z,13.67
2018-01-22T20:11:19.016Z,14.63
2018-01-22T20:13:48.037Z,13.67
2018-01-22T20:16:17.440Z,12.70
2018-01-22T20:18:46.515Z,15.50
2018-01-22T20:21:15.718Z,16.77
2018-01-22T20:23:44.851Z,15.60
2018-01-22T20:26:14.158Z,13.20
2018-01-22T20:28:43.440Z,16.00
2018-01-22T20:31:12.663Z,15.10
2018-01-22T20:33:42.424Z,13.90
2018-01-22T20:36:11.955Z,14.97
2018-01-22T20:38:40.926Z,14.90
2018-01-22T20:41:09.919Z,14.70
2018-01-22T20:43:39.567Z,14.13
2018-01-22T20:46:08.599Z,15.43
2018-01-22T20:48:37.663Z,15.50
2018-01-22T20:51:06.704Z,12.93
2018-01-22T20:53:35.624Z,16.00
2018-01-22T20:56:04.666Z,13.57
2018-01-22T20:58:33.712Z,13.03
2018-01-22T21:01:02.912Z,13.43
2018-01-22T21:03:31.961Z,14.50
2018-01-22T21:06:01.691Z,14.70
2018-01-22T21:08:30.772Z,12.57
2018-01-22T21:10:59.803Z,16.67
2018-01-22T21:13:30.679Z,15.60
2018-01-22T21:16:00.954Z,14.80
2018-01-22T21:18:30.703Z,13.53
2018-01-22T21:21:00.668Z,17.00
2018-01-22T21:23:29.591Z,14.67
2018-01-22T21:26:02.210Z,13.33
2018-01-22T21:28:32.344Z,13.40
2018-01-22T21:31:03.127Z,13.97
2018-01-22T21:33:32.241Z,12.70
2018-01-22T21:36:02.016Z,11.37
2018-01-22T21:38:30.966Z,12.13
2018-01-22T21:41:00.060Z,14.47
2018-01-22T21:43:28.998Z,12.03
2018-01-22T21:45:58.138Z,13.13
2018-01-22T21:48:27.406Z,12.60
2018-01-22T21:50:56.340Z,13.47
2018-01-22T21:53:25.427Z,12.27
2018-01-22T21:55:54.531Z,12.27
2018-01-22T21:58:23.580Z,12.40
2018-01-22T22:00:52.733Z,11.83
2018-01-22T22:03:22.190Z,12.50
2018-01-22T22:05:51.185Z,13.60
2018-01-22T22:08:20.204Z,13.70
2018-01-22T22:10:49.288Z,12.83
2018-01-22T22:13:18.218Z,12.40
2018-01-22T22:15:47.322Z,12.87
2018-01-22T22:18:17.325Z,14.67
2018-01-22T22:20:46.731Z,14.03
2018-01-22T22:23:16.645Z,14.93
2018-01-22T22:25:45.672Z,14.63
2018-01-22T22:28:14.704Z,14.40
2018-01-22T22:30:43.759Z,15.73
2018-01-22T22:33:12.673Z,16.10
2018-01-22T22:35:41.712Z,14.80
2018-01-22T22:38:11.247Z,15.17
2018-01-22T22:40:40.267Z,13.20
2018-01-22T22:43:09.299Z,13.60
2018-01-22T22:45:38.353Z,15.93
2018-01-22T22:48:07.600Z,12.90
2018-01-22T22:50:36.591Z,13.20
2018-01-22T22:53:05.576Z,13.37
2018-01-22T22:55:34.513Z,12.60
2018-01-22T22:58:03.427Z,12.27
2018-01-22T23:00:32.444Z,11.83
2018-01-22T23:03:01.566Z,11.83
2018-01-22T23:05:30.514Z,10.73
2018-01-22T23:07:59.989Z,10.60
2018-01-22T23:10:28.898Z,9.10
2018-01-22T23:12:58.100Z,11.57
2018-01-22T23:15:27.081Z,11.83
2018-01-22T23:17:56.059Z,12.37
2018-01-22T23:20:25.833Z,10.83
2018-01-22T23:22:55.113Z,9.93
2018-01-22T23:25:24.192Z,11.70
2018-01-22T23:27:53.788Z,10.97
2018-01-22T23:30:23.507Z,10.30
2018-01-22T23:32:52.549Z,11.40
2018-01-22T23:35:21.475Z,10.20
2018-01-22T23:37:50.774Z,11.50
2018-01-22T23:40:20.532Z,9.00
2018-01-22T23:42:49.530Z,10.07
2018-01-22T23:45:18.584Z,8.53
2018-01-22T23:47:47.582Z,9.70
2018-01-22T23:50:16.718Z,8.87
2018-01-22T23:52:45.831Z,9.90
2018-01-22T23:55:15.774Z,9.53
2018-01-22T23:57:44.719Z,10.07
